Triathlon Gravelines 2023

Epreuve sélectionnée:


M - Résultats Scratch

Filtre:

Partants Général Top 5



Recherche:

N° dossard
Nom
Club
M - Classement arriv
Clt Athlète Nat. Club Temps Sexe Cat Nat #1 Vélo #2 CaP Retour vélo BikeLap1
1 327 GALLET Mathieu TRIATHLON CLUB DE DOUAI 02:00:00 M (1e) Senior (1e) 00:20:24 (4e) 00:00:51 (4e) 01:00:55 (2e) 00:00:45 (8e) 00:37:07 (4e) 01:22:09 (2e) 00:51:28 (3e) Partagez votre performance
2 84 MISSER Quentin VILLENEUVE D ASCQ TRIATHLON 02:01:47 M (2e) Senior (2e) 00:19:12 (1e) 00:01:03 (16e) 01:02:18 (6e) 00:00:44 (6e) 00:38:32 (6e) 01:22:32 (3e) 00:51:22 (2e) Partagez votre performance
3 224 JOYEZ Timoth RACING CLUB ARRAS TRIATHLON 02:02:50 M (3e) Senior (3e) 00:22:28 (13e) 00:01:27 (66e) 01:00:54 (1e) 00:00:59 (54e) 00:37:04 (3e) 01:24:48 (4e) 00:53:56 (6e) Partagez votre performance
4 108 GANESH Prashanth ITU 02:04:36 M (4e) Senior (4e) 00:20:47 (8e) 00:00:53 (6e) 01:05:44 (36e) 00:00:54 (32e) 00:36:21 (2e) 01:27:22 (11e) 00:54:32 (8e) Partagez votre performance
5 233 COCHIN Jules CLERMONT TRIATHLON 02:04:52 M (5e) Junior (1e) 00:20:38 (6e) 00:01:03 (15e) 01:03:10 (9e) 00:00:43 (4e) 00:39:20 (8e) 01:24:50 (5e) 00:52:57 (4e) Partagez votre performance
6 32 RENARD Emmanuel COTE D OPALE TRIATHLON CALAIS SAINT OMER 02:06:24 M (6e) Master (1e) 00:19:23 (2e) 00:00:50 (3e) 01:01:41 (4e) 00:01:00 (58e) 00:43:32 (44e) 01:21:53 (1e) 00:50:32 (1e) Partagez votre performance
7 276 DEMARQUOIS Martin ENTENTE SPORTIVE NANTERRE 02:09:01 M (7e) Senior (5e) 00:24:11 (26e) 00:01:24 (53e) 01:00:57 (3e) 00:00:59 (57e) 00:41:32 (22e) 01:26:30 (7e) 00:55:55 (12e) Partagez votre performance
8 81 COCQUET Barnab GRAVELINES TRIATHLON 02:09:06 M (8e) Senior (6e) 00:21:01 (9e) 00:01:00 (12e) 01:05:22 (31e) 00:00:38 (1e) 00:41:08 (18e) 01:27:22 (10e) 00:54:31 (7e) Partagez votre performance
9 264 DEWANCKELE Matthieu BEAUVAIS TRIATHLON 02:09:30 M (9e) Master (2e) 00:21:40 (11e) 00:01:10 (22e) 01:05:52 (38e) 00:00:50 (19e) 00:40:00 (11e) 01:28:42 (13e) 00:55:39 (11e) Partagez votre performance
10 5 CONVERS Damien 02:09:48 M (10e) Senior (7e) 00:23:29 (17e) 00:01:17 (38e) 01:02:26 (7e) 00:00:47 (11e) 00:41:51 (24e) 01:27:10 (8e) 00:55:22 (10e) Partagez votre performance
11 262 BRIQUEZ St LILLE TRIATHLON 02:10:09 M (11e) Master (3e) 00:26:03 (55e) 00:01:28 (69e) 01:03:28 (14e) 00:01:06 (78e) 00:38:07 (5e) 01:30:57 (21e) 00:59:05 (27e) Partagez votre performance
12 232 BONTE Simon TRIATHLON LITTORAL 59 02:10:19 M (12e) Senior (8e) 00:24:56 (40e) 00:01:15 (33e) 01:03:18 (11e) 00:00:53 (25e) 00:39:59 (10e) 01:29:28 (16e) 00:57:38 (19e) Partagez votre performance
13 226 DELANNOY Matthieu 02:10:48 M (13e) Senior (9e) 00:24:09 (23e) 00:01:25 (60e) 01:03:20 (12e) 00:01:33 (185e) 00:40:22 (15e) 01:28:54 (14e) 00:57:21 (16e) Partagez votre performance
14 332 TIBERGHIEN Antoine LYS CALAIS TRIATHLON 02:10:48 M (14e) Master (4e) 00:24:04 (21e) 00:01:00 (11e) 01:02:10 (5e) 00:00:56 (46e) 00:42:39 (32e) 01:27:14 (9e) 00:56:01 (13e) Partagez votre performance
15 183 LIBERT Thibault VILLENEUVE D ASCQ TRIATHLON 02:11:25 M (15e) Senior (10e) 00:24:14 (27e) 00:00:54 (7e) 01:04:15 (19e) 00:00:44 (7e) 00:41:20 (20e) 01:29:22 (15e) 00:57:00 (15e) Partagez votre performance
16 109 GAUTIER Marin US PALAISEAU TRIATHLON 02:13:03 M (16e) Senior (11e) 00:24:11 (25e) 00:01:13 (29e) 01:05:02 (28e) 00:00:47 (12e) 00:41:51 (25e) 01:30:25 (18e) 00:57:54 (20e) Partagez votre performance
17 320 BRAZY Matthieu TRIATHLON CLUB DES WEPPES 02:13:44 M (17e) Senior (12e) 00:26:01 (54e) 00:00:52 (5e) 01:03:29 (15e) 00:01:00 (60e) 00:42:23 (30e) 01:30:21 (17e) 00:58:30 (24e) Partagez votre performance
18 27 MOULIN Arthur VALENCIENNES TRIATHLON 02:14:03 M (18e) Junior (2e) 00:20:37 (5e) 00:00:47 (2e) 01:10:30 (120e) 00:00:56 (44e) 00:41:14 (19e) 01:31:54 (25e) 00:56:32 (14e) Partagez votre performance
19 301 CUVELIER Arnaud LILLE TRIATHLON 02:14:24 M (19e) Master (5e) 00:24:44 (34e) 00:01:34 (82e) 01:08:29 (79e) 00:00:41 (2e) 00:38:58 (7e) 01:34:46 (41e) 01:00:23 (36e) Partagez votre performance
20 149 CAMBAZAR Arnaud LILLE TRIATHLON 02:14:36 M (20e) Senior (13e) 00:19:34 (3e) 00:01:39 (90e) 01:04:34 (23e) 00:01:09 (89e) 00:47:41 (95e) 01:25:46 (6e) 00:53:06 (5e) Partagez votre performance
21 112 LOUVET Lucas LILLE TRIATHLON 02:14:57 M (21e) Senior (14e) 00:20:45 (7e) 00:01:19 (40e) 01:06:18 (43e) 00:01:12 (99e) 00:45:25 (63e) 01:28:21 (12e) 00:55:00 (9e) Partagez votre performance
22 48 LEDOUX Christophe VILLENEUVE D ASCQ TRIATHLON 02:15:30 M (22e) Master (6e) 00:31:47 (209e) 00:01:22 (44e) 01:05:28 (32e) 00:01:05 (76e) 00:35:50 (1e) 01:38:36 (82e) 01:05:54 (119e) Partagez votre performance
23 111 LI Lo 02:15:33 M (23e) Senior (15e) 00:24:15 (28e) 00:01:13 (31e) 01:06:32 (46e) 00:01:23 (149e) 00:42:11 (28e) 01:32:00 (26e) 00:58:34 (25e) Partagez votre performance
24 311 VROLAND Maxime TRIATHLON LITTORAL 59 02:16:26 M (24e) Senior (16e) 00:24:10 (24e) 00:01:05 (18e) 01:07:51 (68e) 00:01:12 (98e) 00:42:10 (27e) 01:33:04 (28e) 00:58:26 (23e) Partagez votre performance
25 50 DUSSART David TRIATHLON CLUB D`HAZEBROUCK 02:16:46 M (25e) Master (7e) 00:26:27 (65e) 00:01:39 (92e) 01:02:45 (8e) 00:01:11 (91e) 00:44:46 (55e) 01:30:51 (19e) 00:59:00 (26e) Partagez votre performance
26 182 FERNANDES Christophe TEAM S BIKE AMIENS 02:17:48 M (26e) Master (8e) 00:28:46 (122e) 00:01:47 (117e) 01:05:37 (34e) 00:01:08 (86e) 00:40:32 (17e) 01:36:10 (57e) 01:02:57 (71e) Partagez votre performance
27 284 STIEVENART Sebastien 02:18:21 M (27e) Master (9e) 00:27:45 (101e) 00:01:41 (100e) 01:04:17 (21e) 00:01:15 (115e) 00:43:25 (43e) 01:33:41 (31e) 01:01:29 (52e) Partagez votre performance
28 165 DELBECQUE Vincent GRAVELINES TRIATHLON 02:18:23 M (28e) Senior (17e) 00:26:35 (72e) 00:01:22 (49e) 01:05:08 (29e) 00:01:18 (127e) 00:44:01 (47e) 01:33:05 (29e) 01:00:26 (39e) Partagez votre performance
29 326 DARON Victor 02:18:42 M (29e) Senior (18e) 00:25:33 (47e) 00:01:13 (27e) 01:08:07 (70e) 00:01:49 (220e) 00:42:02 (26e) 01:34:52 (42e) 00:59:33 (32e) Partagez votre performance
30 348 GOSSART Jerome 02:18:59 M (30e) Senior (19e) 00:28:17 (113e) 00:02:36 (235e) 01:05:59 (40e) 00:02:09 (269e) 00:40:00 (12e) 01:36:51 (64e) 01:03:16 (73e) Partagez votre performance
31 74 SOYEZ Guillaume 02:19:11 M (31e) Master (10e) 00:26:26 (62e) 00:02:28 (215e) 01:06:21 (45e) 00:01:14 (111e) 00:42:44 (35e) 01:35:14 (47e) 01:01:38 (55e) Partagez votre performance
32 13 HUBAU Pierre RACING CLUB ARRAS TRIATHLON 02:19:14 M (32e) Senior (20e) 00:26:32 (68e) 00:01:23 (51e) 01:03:14 (10e) 00:00:43 (5e) 00:47:24 (86e) 01:31:08 (22e) 00:59:07 (29e) Partagez votre performance
33 58 ALLART Julien AMIENS TRIATHLON 02:19:41 M (33e) Master (11e) 00:22:38 (15e) 00:01:23 (50e) 01:07:50 (66e) 00:01:07 (81e) 00:46:44 (79e) 01:31:51 (23e) 00:57:29 (18e) Partagez votre performance
34 325 DELROISSE Rudy CRAZY & TRI 02:19:49 M (34e) Master (12e) 00:23:55 (20e) 00:01:59 (141e) 01:09:19 (95e) 00:00:53 (27e) 00:43:45 (45e) 01:35:12 (45e) 01:00:25 (37e) Partagez votre performance
35 283 VANKIEKEN Sebastien 02:19:56 M (35e) Master (13e) 00:27:52 (105e) 00:02:30 (221e) 01:05:02 (27e) 00:01:54 (234e) 00:42:40 (33e) 01:35:23 (49e) 01:02:22 (63e) Partagez votre performance
36 294 LANTENOIS Martin HALLUIN TRIATHLON 02:19:59 M (36e) Senior (21e) 00:29:51 (151e) 00:02:09 (169e) 01:06:40 (48e) 00:01:36 (190e) 00:39:45 (9e) 01:38:39 (84e) 01:05:09 (108e) Partagez votre performance
37 323 DESAILLY Geoffrey TRIATHLON CLUB DE LIEVIN 02:20:09 M (37e) Senior (22e) 00:27:19 (89e) 00:02:12 (175e) 01:04:24 (22e) 00:01:54 (235e) 00:44:23 (51e) 01:33:53 (34e) 01:01:32 (53e) Partagez votre performance
38 177 LANNOO Antoine TRIATHLON CLUB DES WEPPES 02:20:17 M (38e) Senior (23e) 00:24:49 (37e) 00:01:26 (63e) 01:10:53 (126e) 00:00:53 (28e) 00:42:18 (29e) 01:37:07 (67e) 01:01:19 (48e) Partagez votre performance
39 61 D Nicolas POIX TRIATHLON 02:20:31 M (39e) Senior (24e) 00:28:52 (125e) 00:01:13 (30e) 01:08:08 (71e) 00:00:54 (31e) 00:41:26 (21e) 01:38:12 (76e) 01:04:10 (86e) Partagez votre performance
40 144 LAPOSTOLLE Quentin POIX TRIATHLON 02:20:31 M (40e) Senior (25e) 00:27:34 (95e) 00:02:11 (174e) 01:05:46 (37e) 00:02:11 (272e) 00:42:51 (37e) 01:35:30 (50e) 01:02:26 (64e) Partagez votre performance
41 161 BONNEL Emilien 02:20:41 M (41e) Senior (26e) 00:24:27 (32e) 00:02:48 (260e) 01:08:42 (83e) 00:01:37 (196e) 00:43:09 (40e) 01:35:55 (54e) 01:01:12 (46e) Partagez votre performance
42 206 DELVALLEE Alexandre 02:20:45 M (42e) Senior (27e) 00:28:03 (108e) 00:01:24 (52e) 01:10:08 (117e) 00:00:48 (13e) 00:40:24 (16e) 01:39:34 (101e) 01:04:08 (83e) Partagez votre performance
43 147 LECARDONNEL Axel AS TRIATHLON GENDARMERIE 02:20:46 M (43e) Senior (28e) 00:26:03 (56e) 00:01:12 (24e) 01:03:41 (16e) 00:00:55 (38e) 00:48:57 (109e) 01:30:56 (20e) 00:59:07 (28e) Partagez votre performance
44 49 EVERAERE Thomas TRIATHLON CLUB D`HAZEBROUCK 02:20:53 M (44e) Senior (29e) 00:26:00 (52e) 00:01:48 (118e) 01:07:44 (65e) 00:01:27 (162e) 00:43:55 (46e) 01:35:32 (51e) 01:00:55 (43e) Partagez votre performance
45 103 LAMOTE Lambert 02:21:04 M (45e) Senior (30e)